Seaspan Elbe — VRNY5 — position and weather

sailwx.info

Track history (hours):
 
Tides and Currents Weather Stations Pressure Air Temp Water Temp Dewpoint Dewpoint Depression Visibility Wind Speed Wind Dir Waves Ship Positions

Seaspan Elbe

Last reported at 2017-Nov-09 02:44 UTC. Time now 2017-Nov-18 21:48 UTC.
Position N 36°09' E 014°38'.
Warning: this ship's position is 9 days out of date.

Length 336 m; draft 13.5 m.

Type: Ship (hazmat cat A). MMSI: 477790500.

Date/timePositionNaut miles runAvg speedWind from/ knotsBaromVisibWave heightAir tempDewpointWater temp
2017-Nov-09 02:44N 36°09' E 014°38'414.4
2017-Nov-09 02:30N 36°10' E 014°33'714.4
2017-Nov-09 02:00N 36°12' E 014°25'714.2
2017-Nov-09 01:30N 36°14' E 014°17'714.2
2017-Nov-09 01:00N 36°17' E 014°08'714.3
2017-Nov-09 00:30N 36°20' E 014°00'714.5
2017-Nov-09 00:00N 36°23' E 013°52'714.6
2017-Nov-08 23:29N 36°26' E 013°44'  
2017-Nov-05 10:31N 37°59' W 009°53'114.9
2017-Nov-05 10:27N 37°59' W 009°53'715.0
2017-Nov-05 10:00N 38°06' W 009°55'815.3
2017-Nov-05 09:30N 38°13' W 009°58'815.3
2017-Nov-05 09:00N 38°21' W 010°01'815.5
2017-Nov-05 08:30N 38°28' W 010°03'815.6
2017-Nov-05 08:00N 38°36' W 010°05'714.8
2017-Nov-05 07:30N 38°43' W 010°06'815.2
2017-Nov-05 07:00N 38°51' W 010°06'815.1
2017-Nov-05 06:30N 38°58' W 010°06'815.4
2017-Nov-05 06:00N 39°06' W 010°06'815.4
2017-Nov-05 05:30N 39°14' W 010°07'815.2
2017-Nov-05 05:00N 39°21' W 010°07'54914.9
2017-Nov-03 16:02N 48°07' W 006°25'314.6
2017-Nov-03 15:50N 48°09' W 006°23'614.3
2017-Nov-03 15:26N 48°14' W 006°19'613.8
2017-Nov-03 15:00N 48°20' W 006°14'2113.4
2017-Nov-03 13:24N 48°39' W 005°60'713.5
2017-Nov-03 12:53N 48°45' W 005°55'614.0
2017-Nov-03 12:27N 48°51' W 005°51'714.1
2017-Nov-03 12:00N 48°56' W 005°45'715.0
2017-Nov-03 11:30N 48°60' W 005°36'815.8
2017-Nov-03 11:00N 49°04' W 005°26'816.1
2017-Nov-03 10:30N 49°08' W 005°16'1916.7
2017-Nov-03 09:24N 49°18' W 004°52'1416.6
2017-Nov-03 08:35N 49°24' W 004°33'316.5
2017-Nov-03 08:23N 49°26' W 004°29'4614.8
2017-Nov-03 05:14N 49°48' W 003°26'313.3
2017-Nov-03 05:00N 49°50' W 003°22'713.4
2017-Nov-03 04:29N 49°53' W 003°13'713.7
2017-Nov-03 04:00N 49°56' W 003°03'714.0
2017-Nov-03 03:31N 49°59' W 002°54'714.8
2017-Nov-03 03:01N 50°01' W 002°42'815.8
2017-Nov-03 02:30N 50°03' W 002°31'1617.2
2017-Nov-03 01:34N 50°07' W 002°06'118.4
2017-Nov-03 01:30N 50°08' W 002°04'918.5
2017-Nov-03 01:00N 50°10' W 001°51'918.6
2017-Nov-03 00:31N 50°12' W 001°36'918.4
2017-Nov-03 00:00N 50°14' W 001°22'1017.9
2017-Nov-02 23:27N 50°17' W 001°07'916.9
2017-Nov-02 22:53N 50°20' W 000°53'815.8
2017-Nov-02 22:24N 50°23' W 000°42'1215.1
2017-Nov-02 21:38N 50°26' W 000°24'314.6
2017-Nov-02 21:27N 50°26' W 000°20'714.2
2017-Nov-02 20:59N 50°28' W 000°10'613.7
2017-Nov-02 20:31N 50°30' W 000°00'713.2
2017-Nov-02 20:00N 50°32' E 000°10'612.9
2017-Nov-02 19:31N 50°33' E 000°19'613.0
2017-Nov-02 19:01N 50°35' E 000°29'713.4
2017-Nov-02 18:31N 50°38' E 000°39'714.5
2017-Nov-02 18:01N 50°42' E 000°48'815.6
2017-Nov-02 17:31N 50°46' E 000°58'816.4
2017-Nov-02 17:01N 50°51' E 001°09'916.8
2017-Nov-02 16:28N 50°57' E 001°21'816.9
2017-Nov-02 16:01N 51°02' E 001°29'816.3
2017-Nov-02 15:31N 51°08' E 001°38'815.6
2017-Nov-02 15:01N 51°14' E 001°46'714.6
2017-Nov-02 14:31N 51°20' E 001°52'714.0
2017-Nov-02 14:00N 51°27' E 001°56'713.7
2017-Nov-02 13:30N 51°32' E 002°03'713.4
2017-Nov-02 13:00N 51°37' E 002°11'713.3
2017-Nov-02 12:30N 51°42' E 002°18'4613.2
2017-Nov-02 09:00N 52°03' E 003°25'815.2
2017-Nov-02 08:30N 52°03' E 003°37'815.4
2017-Nov-02 08:00N 52°03' E 003°49'4 7.3
2017-Nov-02 07:30N 52°01' E 003°55'612.8
2017-Nov-02 07:00N 51°59' E 004°05'1 2.8
2017-Nov-02 06:31N 51°58' E 004°03'0 0.6
2017-Nov-02 05:59N 51°58' E 004°02'0 0.0
2017-Nov-02 05:29N 51°58' E 004°02'0 0.0
2017-Nov-02 04:59N 51°58' E 004°02'0 0.0
2017-Nov-02 04:29N 51°58' E 004°02'0 0.0
2017-Nov-02 03:59N 51°58' E 004°02'0 0.0
2017-Nov-02 03:29N 51°58' E 004°02'0 0.0
2017-Nov-02 02:56N 51°58' E 004°02'0 0.0
2017-Nov-02 02:29N 51°58' E 004°02'0 0.0
2017-Nov-02 01:59N 51°58' E 004°02'0 0.0
2017-Nov-02 01:29N 51°58' E 004°02'0 0.0
2017-Nov-02 00:59N 51°58' E 004°02'0 0.0
2017-Nov-02 00:29N 51°58' E 004°02'0 0.0
2017-Nov-01 23:59N 51°58' E 004°02'0 0.0
2017-Nov-01 23:29N 51°58' E 004°02'0 0.0
2017-Nov-01 22:59N 51°58' E 004°02'0 0.0
2017-Nov-01 22:29N 51°58' E 004°02'0 0.0
2017-Nov-01 21:59N 51°58' E 004°02'0 0.0
2017-Nov-01 21:29N 51°58' E 004°02'0 0.0
2017-Nov-01 20:59N 51°58' E 004°02'0 0.0
2017-Nov-01 20:29N 51°58' E 004°02'0 0.0
2017-Nov-01 19:59N 51°58' E 004°02'0 0.0
2017-Nov-01 19:29N 51°58' E 004°02'0 0.0
2017-Nov-01 18:59N 51°58' E 004°02'0 0.0
2017-Nov-01 18:29N 51°58' E 004°02'16 1.0
2017-Nov-01 02:00N 52°10' E 003°44'0 0.0
2017-Nov-01 01:30N 52°10' E 003°44'0 0.0
2017-Nov-01 01:00N 52°10' E 003°44'0 0.0
2017-Nov-01 00:30N 52°10' E 003°44'0 0.0
2017-Nov-01 00:00N 52°10' E 003°44'0 0.0
2017-Oct-31 23:30N 52°10' E 003°44'0 0.0
2017-Oct-31 23:00N 52°10' E 003°44'0 0.0
2017-Oct-31 22:30N 52°10' E 003°44'0 0.0
2017-Oct-31 22:00N 52°10' E 003°44'0 0.0
2017-Oct-31 21:30N 52°10' E 003°44'0 0.0
2017-Oct-31 21:00N 52°10' E 003°44'0 0.0
2017-Oct-31 20:30N 52°10' E 003°44'0 0.0
2017-Oct-31 20:00N 52°10' E 003°44'0 0.1
2017-Oct-31 19:30N 52°10' E 003°44'0 0.0
2017-Oct-31 19:00N 52°10' E 003°44'0 0.0
2017-Oct-31 18:30N 52°10' E 003°44'0 0.0
2017-Oct-31 18:00N 52°10' E 003°44'0 0.0
2017-Oct-31 17:30N 52°10' E 003°44'0 0.0
2017-Oct-31 17:00N 52°10' E 003°44'0 0.0
2017-Oct-31 16:30N 52°10' E 003°44'0 0.0
2017-Oct-31 15:57N 52°10' E 003°44'0 0.0
2017-Oct-31 15:24N 52°10' E 003°44'0 0.1
2017-Oct-31 15:00N 52°10' E 003°44'0 0.0
2017-Oct-31 14:30N 52°10' E 003°44'0 0.1
2017-Oct-31 14:00N 52°10' E 003°44'0 0.0
2017-Oct-31 13:30N 52°10' E 003°44'0 0.0
2017-Oct-31 13:00N 52°10' E 003°44'0 0.0
2017-Oct-31 12:30N 52°10' E 003°44'0 0.0
2017-Oct-31 11:57N 52°10' E 003°44'0 0.0
2017-Oct-31 11:30N 52°10' E 003°44'0 0.0
2017-Oct-31 11:00N 52°10' E 003°44'0 0.0
2017-Oct-31 10:30N 52°10' E 003°44'0 0.0
2017-Oct-31 10:00N 52°10' E 003°44'0 0.0
2017-Oct-31 09:30N 52°10' E 003°44'0 0.6
2017-Oct-31 09:00N 52°10' E 003°45'2 4.1
2017-Oct-31 08:30N 52°12' E 003°45'611.4
2017-Oct-31 08:00N 52°18' E 003°47'612.1
2017-Oct-31 07:30N 52°24' E 003°49'712.3
2017-Oct-31 06:58N 52°30' E 003°52'612.6
2017-Oct-31 06:29N 52°36' E 003°54'612.8
2017-Oct-31 05:59N 52°42' E 003°55'712.7
2017-Oct-31 05:25N 52°49' E 003°57'812.5
2017-Oct-31 04:47N 52°57' E 003°60'612.0
2017-Oct-31 04:18N 53°01' E 004°07'411.7
2017-Oct-31 03:59N 53°03' E 004°12'611.2
2017-Oct-31 03:28N 53°07' E 004°19'510.7
2017-Oct-31 02:59N 53°10' E 004°26'911.3
2017-Oct-31 02:12N 53°19' E 004°31'311.2
2017-Oct-31 01:57N 53°21' E 004°32'511.0
2017-Oct-31 01:30N 53°26' E 004°36'611.1
2017-Oct-31 01:00N 53°30' E 004°42'611.1
2017-Oct-31 00:30N 53°32' E 004°51'611.7
2017-Oct-31 00:00N 53°34' E 004°60'612.0
2017-Oct-30 23:30N 53°36' E 005°09'612.5
2017-Oct-30 23:00N 53°38' E 005°19'10111.2
2017-Oct-30 14:00N 53°35' E 008°09'0 0.2
2017-Oct-30 13:17N 53°35' E 008°09'0 0.0
2017-Oct-30 12:56N 53°35' E 008°09'0 0.0
2017-Oct-30 12:29N 53°35' E 008°09'0 0.0
2017-Oct-30 11:59N 53°35' E 008°09'0 0.0
2017-Oct-30 11:29N 53°35' E 008°09'0 0.0
2017-Oct-30 10:59N 53°35' E 008°09'0 0.0
2017-Oct-30 10:29N 53°35' E 008°09'0 0.0
2017-Oct-30 09:59N 53°35' E 008°09'0 0.0
2017-Oct-30 09:29N 53°35' E 008°09'0 0.0
2017-Oct-30 08:59N 53°35' E 008°09'0 0.0
2017-Oct-30 08:29N 53°35' E 008°09'0 0.0
2017-Oct-30 07:53N 53°35' E 008°09'0 0.0
2017-Oct-30 07:26N 53°35' E 008°09'0 0.0
2017-Oct-30 06:59N 53°35' E 008°09'0 0.0
2017-Oct-30 06:29N 53°35' E 008°09'0 0.0
2017-Oct-30 05:59N 53°35' E 008°09'0 0.0
2017-Oct-30 05:29N 53°35' E 008°09'0 0.0
2017-Oct-30 04:59N 53°35' E 008°09'0 0.0
2017-Oct-30 04:29N 53°35' E 008°09'0 0.0
2017-Oct-30 03:59N 53°35' E 008°09'0 0.0
2017-Oct-30 03:29N 53°35' E 008°09'0 0.0
2017-Oct-30 02:56N 53°35' E 008°09'  
Track history (hours):
 
Tides and Currents Weather Stations Pressure Air Temp Water Temp Dewpoint Dewpoint Depression Visibility Wind Speed Wind Dir Waves Ship Positions

Seaspan Elbe

Last reported at 2017-Nov-09 02:44 UTC. Time now 2017-Nov-18 21:48 UTC.
Position N 36°09' E 014°38'.
Warning: this ship's position is 9 days out of date.

Length 336 m; draft 13.5 m.

Type: Ship (hazmat cat A). MMSI: 477790500.

Date/timePositionNaut miles runAvg speedWind from/ knotsBaromVisibWave heightAir tempDewpointWater temp
2017-Nov-09 02:44N 36°09' E 014°38'414.4
2017-Nov-09 02:30N 36°10' E 014°33'714.4
2017-Nov-09 02:00N 36°12' E 014°25'714.2
2017-Nov-09 01:30N 36°14' E 014°17'714.2
2017-Nov-09 01:00N 36°17' E 014°08'714.3
2017-Nov-09 00:30N 36°20' E 014°00'714.5
2017-Nov-09 00:00N 36°23' E 013°52'714.6
2017-Nov-08 23:29N 36°26' E 013°44'  
2017-Nov-05 10:31N 37°59' W 009°53'114.9
2017-Nov-05 10:27N 37°59' W 009°53'715.0
2017-Nov-05 10:00N 38°06' W 009°55'815.3
2017-Nov-05 09:30N 38°13' W 009°58'815.3
2017-Nov-05 09:00N 38°21' W 010°01'815.5
2017-Nov-05 08:30N 38°28' W 010°03'815.6
2017-Nov-05 08:00N 38°36' W 010°05'714.8
2017-Nov-05 07:30N 38°43' W 010°06'815.2
2017-Nov-05 07:00N 38°51' W 010°06'815.1
2017-Nov-05 06:30N 38°58' W 010°06'815.4
2017-Nov-05 06:00N 39°06' W 010°06'815.4
2017-Nov-05 05:30N 39°14' W 010°07'815.2
2017-Nov-05 05:00N 39°21' W 010°07'54914.9
2017-Nov-03 16:02N 48°07' W 006°25'314.6
2017-Nov-03 15:50N 48°09' W 006°23'614.3
2017-Nov-03 15:26N 48°14' W 006°19'613.8
2017-Nov-03 15:00N 48°20' W 006°14'2113.4
2017-Nov-03 13:24N 48°39' W 005°60'713.5
2017-Nov-03 12:53N 48°45' W 005°55'614.0
2017-Nov-03 12:27N 48°51' W 005°51'714.1
2017-Nov-03 12:00N 48°56' W 005°45'715.0
2017-Nov-03 11:30N 48°60' W 005°36'815.8
2017-Nov-03 11:00N 49°04' W 005°26'816.1
2017-Nov-03 10:30N 49°08' W 005°16'1916.7
2017-Nov-03 09:24N 49°18' W 004°52'1416.6
2017-Nov-03 08:35N 49°24' W 004°33'316.5
2017-Nov-03 08:23N 49°26' W 004°29'4614.8
2017-Nov-03 05:14N 49°48' W 003°26'313.3
2017-Nov-03 05:00N 49°50' W 003°22'713.4
2017-Nov-03 04:29N 49°53' W 003°13'713.7
2017-Nov-03 04:00N 49°56' W 003°03'714.0
2017-Nov-03 03:31N 49°59' W 002°54'714.8
2017-Nov-03 03:01N 50°01' W 002°42'815.8
2017-Nov-03 02:30N 50°03' W 002°31'1617.2
2017-Nov-03 01:34N 50°07' W 002°06'118.4
2017-Nov-03 01:30N 50°08' W 002°04'918.5
2017-Nov-03 01:00N 50°10' W 001°51'918.6
2017-Nov-03 00:31N 50°12' W 001°36'918.4
2017-Nov-03 00:00N 50°14' W 001°22'1017.9
2017-Nov-02 23:27N 50°17' W 001°07'916.9
2017-Nov-02 22:53N 50°20' W 000°53'815.8
2017-Nov-02 22:24N 50°23' W 000°42'1215.1
2017-Nov-02 21:38N 50°26' W 000°24'314.6
2017-Nov-02 21:27N 50°26' W 000°20'714.2
2017-Nov-02 20:59N 50°28' W 000°10'613.7
2017-Nov-02 20:31N 50°30' W 000°00'713.2
2017-Nov-02 20:00N 50°32' E 000°10'612.9
2017-Nov-02 19:31N 50°33' E 000°19'613.0
2017-Nov-02 19:01N 50°35' E 000°29'713.4
2017-Nov-02 18:31N 50°38' E 000°39'714.5
2017-Nov-02 18:01N 50°42' E 000°48'815.6
2017-Nov-02 17:31N 50°46' E 000°58'816.4
2017-Nov-02 17:01N 50°51' E 001°09'916.8
2017-Nov-02 16:28N 50°57' E 001°21'816.9
2017-Nov-02 16:01N 51°02' E 001°29'816.3
2017-Nov-02 15:31N 51°08' E 001°38'815.6
2017-Nov-02 15:01N 51°14' E 001°46'714.6
2017-Nov-02 14:31N 51°20' E 001°52'714.0
2017-Nov-02 14:00N 51°27' E 001°56'713.7
2017-Nov-02 13:30N 51°32' E 002°03'713.4
2017-Nov-02 13:00N 51°37' E 002°11'713.3
2017-Nov-02 12:30N 51°42' E 002°18'4613.2
2017-Nov-02 09:00N 52°03' E 003°25'815.2
2017-Nov-02 08:30N 52°03' E 003°37'815.4
2017-Nov-02 08:00N 52°03' E 003°49'4 7.3
2017-Nov-02 07:30N 52°01' E 003°55'612.8
2017-Nov-02 07:00N 51°59' E 004°05'1 2.8
2017-Nov-02 06:31N 51°58' E 004°03'0 0.6
2017-Nov-02 05:59N 51°58' E 004°02'0 0.0
2017-Nov-02 05:29N 51°58' E 004°02'0 0.0
2017-Nov-02 04:59N 51°58' E 004°02'0 0.0
2017-Nov-02 04:29N 51°58' E 004°02'0 0.0
2017-Nov-02 03:59N 51°58' E 004°02'0 0.0
2017-Nov-02 03:29N 51°58' E 004°02'0 0.0
2017-Nov-02 02:56N 51°58' E 004°02'0 0.0
2017-Nov-02 02:29N 51°58' E 004°02'0 0.0
2017-Nov-02 01:59N 51°58' E 004°02'0 0.0
2017-Nov-02 01:29N 51°58' E 004°02'0 0.0
2017-Nov-02 00:59N 51°58' E 004°02'0 0.0
2017-Nov-02 00:29N 51°58' E 004°02'0 0.0
2017-Nov-01 23:59N 51°58' E 004°02'0 0.0
2017-Nov-01 23:29N 51°58' E 004°02'0 0.0
2017-Nov-01 22:59N 51°58' E 004°02'0 0.0
2017-Nov-01 22:29N 51°58' E 004°02'0 0.0
2017-Nov-01 21:59N 51°58' E 004°02'0 0.0
2017-Nov-01 21:29N 51°58' E 004°02'0 0.0
2017-Nov-01 20:59N 51°58' E 004°02'0 0.0
2017-Nov-01 20:29N 51°58' E 004°02'0 0.0
2017-Nov-01 19:59N 51°58' E 004°02'0 0.0
2017-Nov-01 19:29N 51°58' E 004°02'0 0.0
2017-Nov-01 18:59N 51°58' E 004°02'0 0.0
2017-Nov-01 18:29N 51°58' E 004°02'16 1.0
2017-Nov-01 02:00N 52°10' E 003°44'0 0.0
2017-Nov-01 01:30N 52°10' E 003°44'0 0.0
2017-Nov-01 01:00N 52°10' E 003°44'0 0.0
2017-Nov-01 00:30N 52°10' E 003°44'0 0.0
2017-Nov-01 00:00N 52°10' E 003°44'0 0.0
2017-Oct-31 23:30N 52°10' E 003°44'0 0.0
2017-Oct-31 23:00N 52°10' E 003°44'0 0.0
2017-Oct-31 22:30N 52°10' E 003°44'0 0.0
2017-Oct-31 22:00N 52°10' E 003°44'0 0.0
2017-Oct-31 21:30N 52°10' E 003°44'0 0.0
2017-Oct-31 21:00N 52°10' E 003°44'0 0.0
2017-Oct-31 20:30N 52°10' E 003°44'0 0.0
2017-Oct-31 20:00N 52°10' E 003°44'0 0.1
2017-Oct-31 19:30N 52°10' E 003°44'0 0.0
2017-Oct-31 19:00N 52°10' E 003°44'0 0.0
2017-Oct-31 18:30N 52°10' E 003°44'0 0.0
2017-Oct-31 18:00N 52°10' E 003°44'0 0.0
2017-Oct-31 17:30N 52°10' E 003°44'0 0.0
2017-Oct-31 17:00N 52°10' E 003°44'0 0.0
2017-Oct-31 16:30N 52°10' E 003°44'0 0.0
2017-Oct-31 15:57N 52°10' E 003°44'0 0.0
2017-Oct-31 15:24N 52°10' E 003°44'0 0.1
2017-Oct-31 15:00N 52°10' E 003°44'0 0.0
2017-Oct-31 14:30N 52°10' E 003°44'0 0.1
2017-Oct-31 14:00N 52°10' E 003°44'0 0.0
2017-Oct-31 13:30N 52°10' E 003°44'0 0.0
2017-Oct-31 13:00N 52°10' E 003°44'0 0.0
2017-Oct-31 12:30N 52°10' E 003°44'0 0.0
2017-Oct-31 11:57N 52°10' E 003°44'0 0.0
2017-Oct-31 11:30N 52°10' E 003°44'0 0.0
2017-Oct-31 11:00N 52°10' E 003°44'0 0.0
2017-Oct-31 10:30N 52°10' E 003°44'0 0.0
2017-Oct-31 10:00N 52°10' E 003°44'0 0.0
2017-Oct-31 09:30N 52°10' E 003°44'0 0.6
2017-Oct-31 09:00N 52°10' E 003°45'2 4.1
2017-Oct-31 08:30N 52°12' E 003°45'611.4
2017-Oct-31 08:00N 52°18' E 003°47'612.1
2017-Oct-31 07:30N 52°24' E 003°49'712.3
2017-Oct-31 06:58N 52°30' E 003°52'612.6
2017-Oct-31 06:29N 52°36' E 003°54'612.8
2017-Oct-31 05:59N 52°42' E 003°55'712.7
2017-Oct-31 05:25N 52°49' E 003°57'812.5
2017-Oct-31 04:47N 52°57' E 003°60'612.0
2017-Oct-31 04:18N 53°01' E 004°07'411.7
2017-Oct-31 03:59N 53°03' E 004°12'611.2
2017-Oct-31 03:28N 53°07' E 004°19'510.7
2017-Oct-31 02:59N 53°10' E 004°26'911.3
2017-Oct-31 02:12N 53°19' E 004°31'311.2
2017-Oct-31 01:57N 53°21' E 004°32'511.0
2017-Oct-31 01:30N 53°26' E 004°36'611.1
2017-Oct-31 01:00N 53°30' E 004°42'611.1
2017-Oct-31 00:30N 53°32' E 004°51'611.7
2017-Oct-31 00:00N 53°34' E 004°60'612.0
2017-Oct-30 23:30N 53°36' E 005°09'612.5
2017-Oct-30 23:00N 53°38' E 005°19'10111.2
2017-Oct-30 14:00N 53°35' E 008°09'0 0.2
2017-Oct-30 13:17N 53°35' E 008°09'0 0.0
2017-Oct-30 12:56N 53°35' E 008°09'0 0.0
2017-Oct-30 12:29N 53°35' E 008°09'0 0.0
2017-Oct-30 11:59N 53°35' E 008°09'0 0.0
2017-Oct-30 11:29N 53°35' E 008°09'0 0.0
2017-Oct-30 10:59N 53°35' E 008°09'0 0.0
2017-Oct-30 10:29N 53°35' E 008°09'0 0.0
2017-Oct-30 09:59N 53°35' E 008°09'0 0.0
2017-Oct-30 09:29N 53°35' E 008°09'0 0.0
2017-Oct-30 08:59N 53°35' E 008°09'0 0.0
2017-Oct-30 08:29N 53°35' E 008°09'0 0.0
2017-Oct-30 07:53N 53°35' E 008°09'0 0.0
2017-Oct-30 07:26N 53°35' E 008°09'0 0.0
2017-Oct-30 06:59N 53°35' E 008°09'0 0.0
2017-Oct-30 06:29N 53°35' E 008°09'0 0.0
2017-Oct-30 05:59N 53°35' E 008°09'0 0.0
2017-Oct-30 05:29N 53°35' E 008°09'0 0.0
2017-Oct-30 04:59N 53°35' E 008°09'0 0.0
2017-Oct-30 04:29N 53°35' E 008°09'0 0.0
2017-Oct-30 03:59N 53°35' E 008°09'0 0.0
2017-Oct-30 03:29N 53°35' E 008°09'0 0.0
2017-Oct-30 02:56N 53°35' E 008°09'  

Dump ship's entire track history